Weather at North Houston Airport

Public forecast

Using degrees Fahrenheit for public forecast. Weather courtesy of forecast.io.

Closest aviation weather report (METAR) to North Houston Airport

Closest report is George Bush Intercontinental Houston Airport, 10.2 nm (18.9 km) S. Retrieved 2021/02/27 01:37 UTC (30 minutes ago):

KIAH 270137Z 16009KT 10SM BKN016 BKN250 22/18 A2990 RMK AO2 T02170183

Closest aviation forecast (TAF) to North Houston Airport

Closest forecast is George Bush Intercontinental Houston Airport, 10.2 nm (18.9 km) S. Retrieved 2021-02-27 00:22 UTC (2 hours ago):

TAF KIAH 262320Z 2700/2806 16008KT P6SM FEW020 BKN035 FM270300 15005KT P6SM SCT015 BKN025 FM270700 14005KT 6SM BR SCT007 OVC015 FM271000 14005KT 4SM BR OVC007 FM271700 15012KT P6SM OVC015 FM271900 16015KT P6SM SCT025 BKN035 FM280300 15008KT P6SM BKN015